sensor_id;sensor_type;location;lat;lon;timestamp;temperature;humidity
23081;DHT22;11708;50.570;8.532;2023-02-11T00:00:07;1.60;99.90
23081;DHT22;11708;50.570;8.532;2023-02-11T00:02:33;1.60;99.90
23081;DHT22;11708;50.570;8.532;2023-02-11T00:04:59;1.70;99.90
23081;DHT22;11708;50.570;8.532;2023-02-11T00:07:32;1.70;99.90
23081;DHT22;11708;50.570;8.532;2023-02-11T00:09:57;1.70;99.90
23081;DHT22;11708;50.570;8.532;2023-02-11T00:12:24;1.70;99.90
23081;DHT22;11708;50.570;8.532;2023-02-11T00:14:50;1.70;99.90
23081;DHT22;11708;50.570;8.532;2023-02-11T00:17:16;1.70;99.90
23081;DHT22;11708;50.570;8.532;2023-02-11T00:19:41;1.70;99.90
23081;DHT22;11708;50.570;8.532;2023-02-11T00:22:07;1.60;99.90
23081;DHT22;11708;50.570;8.532;2023-02-11T00:24:34;1.90;99.90
23081;DHT22;11708;50.570;8.532;2023-02-11T00:27:00;1.80;99.90
23081;DHT22;11708;50.570;8.532;2023-02-11T00:29:25;1.80;99.90
23081;DHT22;11708;50.570;8.532;2023-02-11T00:31:51;1.80;99.90
23081;DHT22;11708;50.570;8.532;2023-02-11T00:34:16;1.80;99.90
23081;DHT22;11708;50.570;8.532;2023-02-11T00:36:42;1.90;99.90
23081;DHT22;11708;50.570;8.532;2023-02-11T00:39:08;1.90;99.90
23081;DHT22;11708;50.570;8.532;2023-02-11T00:41:33;1.90;99.90
23081;DHT22;11708;50.570;8.532;2023-02-11T00:44:00;1.90;99.90
23081;DHT22;11708;50.570;8.532;2023-02-11T00:46:26;1.90;99.90
23081;DHT22;11708;50.570;8.532;2023-02-11T00:48:51;2.00;99.90
23081;DHT22;11708;50.570;8.532;2023-02-11T00:51:19;2.00;99.90
23081;DHT22;11708;50.570;8.532;2023-02-11T00:53:45;2.00;99.90
23081;DHT22;11708;50.570;8.532;2023-02-11T00:56:10;2.00;99.90
23081;DHT22;11708;50.570;8.532;2023-02-11T00:58:36;2.00;99.90
23081;DHT22;11708;50.570;8.532;2023-02-11T01:01:02;2.00;99.90
23081;DHT22;11708;50.570;8.532;2023-02-11T01:03:28;2.10;99.90
23081;DHT22;11708;50.570;8.532;2023-02-11T01:05:54;2.10;99.90
23081;DHT22;11708;50.570;8.532;2023-02-11T01:08:20;2.10;99.90
23081;DHT22;11708;50.570;8.532;2023-02-11T01:10:57;2.10;99.90
23081;DHT22;11708;50.570;8.532;2023-02-11T01:13:23;2.10;99.90
23081;DHT22;11708;50.570;8.532;2023-02-11T01:15:49;2.10;99.90
23081;DHT22;11708;50.570;8.532;2023-02-11T01:18:15;2.10;99.90
23081;DHT22;11708;50.570;8.532;2023-02-11T01:20:40;2.10;99.90
23081;DHT22;11708;50.570;8.532;2023-02-11T01:23:06;2.10;99.90
23081;DHT22;11708;50.570;8.532;2023-02-11T01:25:31;2.10;99.90
23081;DHT22;11708;50.570;8.532;2023-02-11T01:27:57;2.10;99.90
23081;DHT22;11708;50.570;8.532;2023-02-11T01:30:22;2.10;99.90
23081;DHT22;11708;50.570;8.532;2023-02-11T01:32:48;2.10;99.90
23081;DHT22;11708;50.570;8.532;2023-02-11T01:35:14;2.10;99.90
23081;DHT22;11708;50.570;8.532;2023-02-11T01:37:39;1.80;99.90
23081;DHT22;11708;50.570;8.532;2023-02-11T01:40:12;2.10;99.90
23081;DHT22;11708;50.570;8.532;2023-02-11T01:42:38;2.10;99.90
23081;DHT22;11708;50.570;8.532;2023-02-11T01:48:03;2.00;99.90
23081;DHT22;11708;50.570;8.532;2023-02-11T01:50:29;2.00;99.90
23081;DHT22;11708;50.570;8.532;2023-02-11T01:52:55;2.00;99.90
23081;DHT22;11708;50.570;8.532;2023-02-11T01:55:40;2.00;99.90
23081;DHT22;11708;50.570;8.532;2023-02-11T01:58:25;2.00;99.90
23081;DHT22;11708;50.570;8.532;2023-02-11T02:00:51;2.00;99.90
23081;DHT22;11708;50.570;8.532;2023-02-11T02:06:55;2.10;99.90
23081;DHT22;11708;50.570;8.532;2023-02-11T02:09:27;2.00;99.90
23081;DHT22;11708;50.570;8.532;2023-02-11T02:11:55;2.10;99.90
23081;DHT22;11708;50.570;8.532;2023-02-11T02:14:21;2.10;99.90
23081;DHT22;11708;50.570;8.532;2023-02-11T02:16:46;2.10;99.90
23081;DHT22;11708;50.570;8.532;2023-02-11T02:34:43;2.20;99.90
23081;DHT22;11708;50.570;8.532;2023-02-11T02:37:39;2.20;99.90
23081;DHT22;11708;50.570;8.532;2023-02-11T02:40:12;2.30;99.90
23081;DHT22;11708;50.570;8.532;2023-02-11T02:42:40;2.30;99.90
23081;DHT22;11708;50.570;8.532;2023-02-11T02:45:08;2.50;99.90
23081;DHT22;11708;50.570;8.532;2023-02-11T02:47:35;2.80;99.90
23081;DHT22;11708;50.570;8.532;2023-02-11T02:50:00;2.50;99.90
23081;DHT22;11708;50.570;8.532;2023-02-11T02:55:30;2.60;99.90
23081;DHT22;11708;50.570;8.532;2023-02-11T02:58:29;2.60;99.90
23081;DHT22;11708;50.570;8.532;2023-02-11T03:01:25;2.70;99.90
23081;DHT22;11708;50.570;8.532;2023-02-11T03:06:52;2.70;99.90
23081;DHT22;11708;50.570;8.532;2023-02-11T03:09:27;2.80;99.90
23081;DHT22;11708;50.570;8.532;2023-02-11T03:11:53;2.80;99.90
23081;DHT22;11708;50.570;8.532;2023-02-11T03:14:21;3.10;99.90
23081;DHT22;11708;50.570;8.532;2023-02-11T03:16:49;3.00;99.90
23081;DHT22;11708;50.570;8.532;2023-02-11T03:19:22;3.10;99.90
23081;DHT22;11708;50.570;8.532;2023-02-11T03:21:50;3.10;99.90
23081;DHT22;11708;50.570;8.532;2023-02-11T03:24:34;3.20;99.90
23081;DHT22;11708;50.570;8.532;2023-02-11T03:27:07;3.20;99.90
23081;DHT22;11708;50.570;8.532;2023-02-11T03:29:38;3.20;99.90
23081;DHT22;11708;50.570;8.532;2023-02-11T03:34:52;3.20;99.90
23081;DHT22;11708;50.570;8.532;2023-02-11T03:37:23;3.20;99.90
23081;DHT22;11708;50.570;8.532;2023-02-11T03:40:05;3.30;99.90
23081;DHT22;11708;50.570;8.532;2023-02-11T03:42:42;3.30;99.90
23081;DHT22;11708;50.570;8.532;2023-02-11T03:45:12;3.30;99.90
23081;DHT22;11708;50.570;8.532;2023-02-11T03:47:42;3.50;99.90
23081;DHT22;11708;50.570;8.532;2023-02-11T03:50:11;3.20;99.90
23081;DHT22;11708;50.570;8.532;2023-02-11T03:52:39;3.20;99.90
23081;DHT22;11708;50.570;8.532;2023-02-11T03:55:10;3.20;99.90
23081;DHT22;11708;50.570;8.532;2023-02-11T03:57:37;3.20;99.90
23081;DHT22;11708;50.570;8.532;2023-02-11T04:00:03;3.20;99.90
23081;DHT22;11708;50.570;8.532;2023-02-11T04:02:32;3.20;99.90
23081;DHT22;11708;50.570;8.532;2023-02-11T04:04:59;3.20;99.90
23081;DHT22;11708;50.570;8.532;2023-02-11T04:07:25;3.20;99.90
23081;DHT22;11708;50.570;8.532;2023-02-11T04:09:51;3.20;99.90
23081;DHT22;11708;50.570;8.532;2023-02-11T04:12:17;3.20;99.90
23081;DHT22;11708;50.570;8.532;2023-02-11T04:14:43;3.30;99.90
23081;DHT22;11708;50.570;8.532;2023-02-11T04:17:09;3.30;99.90
23081;DHT22;11708;50.570;8.532;2023-02-11T04:19:35;3.30;99.90
23081;DHT22;11708;50.570;8.532;2023-02-11T04:22:00;3.40;99.90
23081;DHT22;11708;50.570;8.532;2023-02-11T04:24:26;3.40;99.90
23081;DHT22;11708;50.570;8.532;2023-02-11T04:26:52;3.40;99.90
23081;DHT22;11708;50.570;8.532;2023-02-11T04:29:18;3.50;99.90
23081;DHT22;11708;50.570;8.532;2023-02-11T04:31:44;3.50;99.90
23081;DHT22;11708;50.570;8.532;2023-02-11T04:34:09;3.50;99.90
23081;DHT22;11708;50.570;8.532;2023-02-11T04:36:35;3.50;99.90
23081;DHT22;11708;50.570;8.532;2023-02-11T04:39:01;3.50;99.90
23081;DHT22;11708;50.570;8.532;2023-02-11T04:41:26;3.50;99.90
23081;DHT22;11708;50.570;8.532;2023-02-11T04:43:53;3.50;99.90
23081;DHT22;11708;50.570;8.532;2023-02-11T04:46:18;3.50;99.90
23081;DHT22;11708;50.570;8.532;2023-02-11T04:48:45;3.50;99.90
23081;DHT22;11708;50.570;8.532;2023-02-11T04:51:11;3.40;99.90
23081;DHT22;11708;50.570;8.532;2023-02-11T04:53:36;3.40;99.90
23081;DHT22;11708;50.570;8.532;2023-02-11T04:56:02;3.40;99.90
23081;DHT22;11708;50.570;8.532;2023-02-11T04:58:28;3.40;99.90
23081;DHT22;11708;50.570;8.532;2023-02-11T05:00:53;3.30;99.90
23081;DHT22;11708;50.570;8.532;2023-02-11T05:03:19;3.30;99.90
23081;DHT22;11708;50.570;8.532;2023-02-11T05:05:45;3.30;99.90
23081;DHT22;11708;50.570;8.532;2023-02-11T05:08:11;3.20;99.90
23081;DHT22;11708;50.570;8.532;2023-02-11T05:10:37;3.20;99.90
23081;DHT22;11708;50.570;8.532;2023-02-11T05:13:03;3.20;99.90
23081;DHT22;11708;50.570;8.532;2023-02-11T05:15:28;3.20;99.90
23081;DHT22;11708;50.570;8.532;2023-02-11T05:17:54;3.20;99.90
23081;DHT22;11708;50.570;8.532;2023-02-11T05:20:20;3.20;99.90
23081;DHT22;11708;50.570;8.532;2023-02-11T05:22:46;3.20;99.90
23081;DHT22;11708;50.570;8.532;2023-02-11T05:25:11;3.20;99.90
23081;DHT22;11708;50.570;8.532;2023-02-11T05:27:37;3.40;99.90
23081;DHT22;11708;50.570;8.532;2023-02-11T05:30:04;3.10;99.90
23081;DHT22;11708;50.570;8.532;2023-02-11T05:32:29;3.00;99.90
23081;DHT22;11708;50.570;8.532;2023-02-11T05:34:55;3.00;99.90
23081;DHT22;11708;50.570;8.532;2023-02-11T05:37:20;3.00;99.90
23081;DHT22;11708;50.570;8.532;2023-02-11T05:39:46;3.00;99.90
23081;DHT22;11708;50.570;8.532;2023-02-11T05:42:12;3.00;99.90
23081;DHT22;11708;50.570;8.532;2023-02-11T05:44:38;2.90;99.90
23081;DHT22;11708;50.570;8.532;2023-02-11T05:47:03;2.90;99.90
23081;DHT22;11708;50.570;8.532;2023-02-11T05:49:29;3.00;99.90
23081;DHT22;11708;50.570;8.532;2023-02-11T05:51:55;3.00;99.90
23081;DHT22;11708;50.570;8.532;2023-02-11T05:54:20;3.00;99.90
23081;DHT22;11708;50.570;8.532;2023-02-11T05:56:46;3.00;99.90
23081;DHT22;11708;50.570;8.532;2023-02-11T05:59:13;3.10;99.90
23081;DHT22;11708;50.570;8.532;2023-02-11T06:01:39;3.10;99.90
23081;DHT22;11708;50.570;8.532;2023-02-11T06:04:04;3.10;99.90
23081;DHT22;11708;50.570;8.532;2023-02-11T06:06:30;3.10;99.90
23081;DHT22;11708;50.570;8.532;2023-02-11T06:08:56;3.10;99.90
23081;DHT22;11708;50.570;8.532;2023-02-11T06:11:21;3.10;99.90
23081;DHT22;11708;50.570;8.532;2023-02-11T06:13:47;3.10;99.90
23081;DHT22;11708;50.570;8.532;2023-02-11T06:16:13;3.10;99.90
23081;DHT22;11708;50.570;8.532;2023-02-11T06:18:38;3.10;99.90
23081;DHT22;11708;50.570;8.532;2023-02-11T06:21:09;3.20;99.90
23081;DHT22;11708;50.570;8.532;2023-02-11T06:23:35;3.10;99.90
23081;DHT22;11708;50.570;8.532;2023-02-11T06:26:18;3.10;99.90
23081;DHT22;11708;50.570;8.532;2023-02-11T06:28:44;3.10;99.90
23081;DHT22;11708;50.570;8.532;2023-02-11T06:31:10;3.20;99.90
23081;DHT22;11708;50.570;8.532;2023-02-11T06:33:36;3.20;99.90
23081;DHT22;11708;50.570;8.532;2023-02-11T06:36:03;3.20;99.90
23081;DHT22;11708;50.570;8.532;2023-02-11T06:38:29;3.20;99.90
23081;DHT22;11708;50.570;8.532;2023-02-11T06:40:54;3.20;99.90
23081;DHT22;11708;50.570;8.532;2023-02-11T06:43:20;3.20;99.90
23081;DHT22;11708;50.570;8.532;2023-02-11T06:45:54;3.20;99.90
23081;DHT22;11708;50.570;8.532;2023-02-11T06:48:21;3.20;99.90
23081;DHT22;11708;50.570;8.532;2023-02-11T06:50:47;3.20;99.90
23081;DHT22;11708;50.570;8.532;2023-02-11T06:53:12;3.20;99.90
23081;DHT22;11708;50.570;8.532;2023-02-11T06:55:38;3.20;99.90
23081;DHT22;11708;50.570;8.532;2023-02-11T06:58:03;3.20;99.90
23081;DHT22;11708;50.570;8.532;2023-02-11T07:00:29;3.20;99.90
23081;DHT22;11708;50.570;8.532;2023-02-11T07:02:55;3.20;99.90
23081;DHT22;11708;50.570;8.532;2023-02-11T07:05:21;2.40;99.90
23081;DHT22;11708;50.570;8.532;2023-02-11T07:07:46;3.00;99.90
23081;DHT22;11708;50.570;8.532;2023-02-11T07:10:12;3.30;99.90
23081;DHT22;11708;50.570;8.532;2023-02-11T07:12:37;3.30;99.90
23081;DHT22;11708;50.570;8.532;2023-02-11T07:15:04;3.30;99.90
23081;DHT22;11708;50.570;8.532;2023-02-11T07:17:30;3.30;99.90
23081;DHT22;11708;50.570;8.532;2023-02-11T07:19:55;3.40;99.90
23081;DHT22;11708;50.570;8.532;2023-02-11T07:22:21;3.40;99.90
23081;DHT22;11708;50.570;8.532;2023-02-11T07:24:46;3.40;99.90
23081;DHT22;11708;50.570;8.532;2023-02-11T07:27:12;3.50;99.90
23081;DHT22;11708;50.570;8.532;2023-02-11T07:29:37;3.50;99.90
23081;DHT22;11708;50.570;8.532;2023-02-11T07:32:03;3.50;99.90
23081;DHT22;11708;50.570;8.532;2023-02-11T07:34:29;3.60;99.90
23081;DHT22;11708;50.570;8.532;2023-02-11T07:36:55;3.60;99.90
23081;DHT22;11708;50.570;8.532;2023-02-11T07:39:20;3.50;99.90
23081;DHT22;11708;50.570;8.532;2023-02-11T07:41:47;3.50;99.90
23081;DHT22;11708;50.570;8.532;2023-02-11T07:44:13;3.60;99.90
23081;DHT22;11708;50.570;8.532;2023-02-11T07:46:40;3.60;99.90
23081;DHT22;11708;50.570;8.532;2023-02-11T07:49:09;3.60;99.90
23081;DHT22;11708;50.570;8.532;2023-02-11T07:51:36;3.60;99.90
23081;DHT22;11708;50.570;8.532;2023-02-11T07:54:02;3.70;99.90
23081;DHT22;11708;50.570;8.532;2023-02-11T07:56:28;3.60;99.90
23081;DHT22;11708;50.570;8.532;2023-02-11T07:58:55;3.60;99.90
23081;DHT22;11708;50.570;8.532;2023-02-11T08:01:25;3.60;99.90
23081;DHT22;11708;50.570;8.532;2023-02-11T08:03:53;3.60;99.90
23081;DHT22;11708;50.570;8.532;2023-02-11T08:06:21;3.70;99.90
23081;DHT22;11708;50.570;8.532;2023-02-11T08:08:47;3.80;99.90
23081;DHT22;11708;50.570;8.532;2023-02-11T08:11:24;3.70;99.90
23081;DHT22;11708;50.570;8.532;2023-02-11T08:13:50;3.80;99.90
23081;DHT22;11708;50.570;8.532;2023-02-11T08:18:47;3.70;99.90
23081;DHT22;11708;50.570;8.532;2023-02-11T08:21:13;3.80;99.90
23081;DHT22;11708;50.570;8.532;2023-02-11T08:23:40;3.80;99.90
23081;DHT22;11708;50.570;8.532;2023-02-11T08:26:11;3.90;99.90
23081;DHT22;11708;50.570;8.532;2023-02-11T08:28:41;3.90;99.90
23081;DHT22;11708;50.570;8.532;2023-02-11T08:31:09;4.00;99.90
23081;DHT22;11708;50.570;8.532;2023-02-11T08:33:36;4.00;99.90
23081;DHT22;11708;50.570;8.532;2023-02-11T08:36:17;4.00;99.90
23081;DHT22;11708;50.570;8.532;2023-02-11T08:38:44;4.00;99.90
23081;DHT22;11708;50.570;8.532;2023-02-11T08:41:10;4.00;99.90
23081;DHT22;11708;50.570;8.532;2023-02-11T08:43:36;4.00;99.90
23081;DHT22;11708;50.570;8.532;2023-02-11T08:46:06;4.10;99.90
23081;DHT22;11708;50.570;8.532;2023-02-11T08:48:32;4.10;99.90
23081;DHT22;11708;50.570;8.532;2023-02-11T08:50:57;4.10;99.90
23081;DHT22;11708;50.570;8.532;2023-02-11T08:53:24;4.10;99.90
23081;DHT22;11708;50.570;8.532;2023-02-11T08:55:53;4.20;99.90
23081;DHT22;11708;50.570;8.532;2023-02-11T08:58:20;4.40;99.90
23081;DHT22;11708;50.570;8.532;2023-02-11T09:00:47;4.20;99.90
23081;DHT22;11708;50.570;8.532;2023-02-11T09:03:14;4.20;99.90
23081;DHT22;11708;50.570;8.532;2023-02-11T09:05:45;4.20;99.90
23081;DHT22;11708;50.570;8.532;2023-02-11T09:08:11;4.30;99.90
23081;DHT22;11708;50.570;8.532;2023-02-11T09:10:37;4.30;99.90
23081;DHT22;11708;50.570;8.532;2023-02-11T09:13:03;4.30;99.90
23081;DHT22;11708;50.570;8.532;2023-02-11T09:15:28;4.30;99.90
23081;DHT22;11708;50.570;8.532;2023-02-11T09:17:54;4.30;99.90
23081;DHT22;11708;50.570;8.532;2023-02-11T09:20:20;4.30;99.90
23081;DHT22;11708;50.570;8.532;2023-02-11T09:22:46;4.30;99.90
23081;DHT22;11708;50.570;8.532;2023-02-11T09:25:12;4.30;99.90
23081;DHT22;11708;50.570;8.532;2023-02-11T09:27:37;4.50;99.90
23081;DHT22;11708;50.570;8.532;2023-02-11T09:30:03;4.40;99.90
23081;DHT22;11708;50.570;8.532;2023-02-11T09:32:30;4.40;99.90
23081;DHT22;11708;50.570;8.532;2023-02-11T09:34:55;4.40;99.90
23081;DHT22;11708;50.570;8.532;2023-02-11T09:37:21;4.40;99.90
23081;DHT22;11708;50.570;8.532;2023-02-11T09:39:47;4.50;99.90
23081;DHT22;11708;50.570;8.532;2023-02-11T09:42:42;4.40;99.90
23081;DHT22;11708;50.570;8.532;2023-02-11T09:45:12;4.50;99.90
23081;DHT22;11708;50.570;8.532;2023-02-11T09:47:55;4.80;99.90
23081;DHT22;11708;50.570;8.532;2023-02-11T09:50:34;4.50;99.90
23081;DHT22;11708;50.570;8.532;2023-02-11T09:55:32;4.60;99.90
23081;DHT22;11708;50.570;8.532;2023-02-11T09:58:03;4.60;99.90
23081;DHT22;11708;50.570;8.532;2023-02-11T10:00:47;4.70;99.90
23081;DHT22;11708;50.570;8.532;2023-02-11T10:03:41;4.70;99.90
23081;DHT22;11708;50.570;8.532;2023-02-11T10:06:37;4.60;99.90
23081;DHT22;11708;50.570;8.532;2023-02-11T10:14:21;4.70;99.90
23081;DHT22;11708;50.570;8.532;2023-02-11T10:20:14;4.70;99.90
23081;DHT22;11708;50.570;8.532;2023-02-11T10:22:50;5.10;99.90
23081;DHT22;11708;50.570;8.532;2023-02-11T10:25:22;4.80;99.90
23081;DHT22;11708;50.570;8.532;2023-02-11T10:27:49;4.90;99.90
23081;DHT22;11708;50.570;8.532;2023-02-11T10:33:17;4.80;99.90
23081;DHT22;11708;50.570;8.532;2023-02-11T10:35:45;4.80;99.90
23081;DHT22;11708;50.570;8.532;2023-02-11T10:38:11;4.70;99.90
23081;DHT22;11708;50.570;8.532;2023-02-11T10:40:37;4.80;99.90
23081;DHT22;11708;50.570;8.532;2023-02-11T10:43:07;4.80;99.90
23081;DHT22;11708;50.570;8.532;2023-02-11T10:45:46;4.90;99.90
23081;DHT22;11708;50.570;8.532;2023-02-11T10:48:44;4.90;99.90
23081;DHT22;11708;50.570;8.532;2023-02-11T10:51:15;4.90;99.90
23081;DHT22;11708;50.570;8.532;2023-02-11T10:53:42;4.90;99.90
23081;DHT22;11708;50.570;8.532;2023-02-11T10:56:10;4.90;99.90
23081;DHT22;11708;50.570;8.532;2023-02-11T10:58:45;5.00;99.90
23081;DHT22;11708;50.570;8.532;2023-02-11T11:01:12;5.00;99.90
23081;DHT22;11708;50.570;8.532;2023-02-11T11:03:45;5.00;99.90
23081;DHT22;11708;50.570;8.532;2023-02-11T11:06:11;5.00;99.90
23081;DHT22;11708;50.570;8.532;2023-02-11T11:08:46;5.00;99.90
23081;DHT22;11708;50.570;8.532;2023-02-11T11:11:20;5.00;99.90
23081;DHT22;11708;50.570;8.532;2023-02-11T11:13:55;5.30;99.90
23081;DHT22;11708;50.570;8.532;2023-02-11T11:16:35;5.00;99.90
23081;DHT22;11708;50.570;8.532;2023-02-11T11:21:39;5.00;99.90
23081;DHT22;11708;50.570;8.532;2023-02-11T11:24:15;5.00;99.90
23081;DHT22;11708;50.570;8.532;2023-02-11T11:26:44;5.00;99.90
23081;DHT22;11708;50.570;8.532;2023-02-11T11:31:57;5.00;99.90
23081;DHT22;11708;50.570;8.532;2023-02-11T11:34:36;5.00;99.90
23081;DHT22;11708;50.570;8.532;2023-02-11T11:42:34;5.00;99.90
23081;DHT22;11708;50.570;8.532;2023-02-11T11:45:23;5.00;99.90
23081;DHT22;11708;50.570;8.532;2023-02-11T11:48:13;5.00;99.90
23081;DHT22;11708;50.570;8.532;2023-02-11T11:51:03;5.00;99.90
23081;DHT22;11708;50.570;8.532;2023-02-11T11:56:13;5.00;99.90
23081;DHT22;11708;50.570;8.532;2023-02-11T11:58:40;5.00;99.90
23081;DHT22;11708;50.570;8.532;2023-02-11T12:04:41;5.00;99.90
23081;DHT22;11708;50.570;8.532;2023-02-11T12:07:27;5.00;99.90
23081;DHT22;11708;50.570;8.532;2023-02-11T12:12:54;5.00;99.90
23081;DHT22;11708;50.570;8.532;2023-02-11T12:35:20;5.30;99.90
23081;DHT22;11708;50.570;8.532;2023-02-11T12:38:09;5.50;99.90
23081;DHT22;11708;50.570;8.532;2023-02-11T12:40:44;5.40;99.90
23081;DHT22;11708;50.570;8.532;2023-02-11T12:46:16;5.40;99.90
23081;DHT22;11708;50.570;8.532;2023-02-11T12:51:55;5.40;99.90
23081;DHT22;11708;50.570;8.532;2023-02-11T12:55:06;5.50;99.90
23081;DHT22;11708;50.570;8.532;2023-02-11T12:57:35;5.90;99.90
23081;DHT22;11708;50.570;8.532;2023-02-11T13:02:40;5.60;99.90
23081;DHT22;11708;50.570;8.532;2023-02-11T13:05:36;5.60;99.90
23081;DHT22;11708;50.570;8.532;2023-02-11T13:08:56;5.50;99.90
23081;DHT22;11708;50.570;8.532;2023-02-11T13:11:19;5.60;99.90
23081;DHT22;11708;50.570;8.532;2023-02-11T13:13:56;5.50;99.90
23081;DHT22;11708;50.570;8.532;2023-02-11T13:16:43;6.00;99.90
23081;DHT22;11708;50.570;8.532;2023-02-11T13:33:04;5.60;99.90
23081;DHT22;11708;50.570;8.532;2023-02-11T13:35:36;5.60;99.90
23081;DHT22;11708;50.570;8.532;2023-02-11T13:38:25;5.60;99.90
23081;DHT22;11708;50.570;8.532;2023-02-11T13:41:14;5.60;99.90
23081;DHT22;11708;50.570;8.532;2023-02-11T13:43:41;5.60;99.90
23081;DHT22;11708;50.570;8.532;2023-02-11T13:46:11;5.50;99.90
23081;DHT22;11708;50.570;8.532;2023-02-11T13:48:45;5.60;99.90
23081;DHT22;11708;50.570;8.532;2023-02-11T13:51:13;5.60;99.90
23081;DHT22;11708;50.570;8.532;2023-02-11T13:53:49;5.60;99.90
23081;DHT22;11708;50.570;8.532;2023-02-11T13:56:34;5.60;99.90
23081;DHT22;11708;50.570;8.532;2023-02-11T13:59:48;5.70;99.90
23081;DHT22;11708;50.570;8.532;2023-02-11T14:04:32;5.70;99.90
23081;DHT22;11708;50.570;8.532;2023-02-11T14:07:27;5.80;99.90
23081;DHT22;11708;50.570;8.532;2023-02-11T14:15:47;5.80;99.90
23081;DHT22;11708;50.570;8.532;2023-02-11T14:24:43;5.80;99.90
23081;DHT22;11708;50.570;8.532;2023-02-11T14:32:47;5.90;99.90
23081;DHT22;11708;50.570;8.532;2023-02-11T14:41:46;5.90;99.90
23081;DHT22;11708;50.570;8.532;2023-02-11T14:44:19;5.90;99.90
23081;DHT22;11708;50.570;8.532;2023-02-11T14:46:47;5.90;99.90
23081;DHT22;11708;50.570;8.532;2023-02-11T14:49:44;5.90;99.90
23081;DHT22;11708;50.570;8.532;2023-02-11T14:52:25;6.00;99.90
23081;DHT22;11708;50.570;8.532;2023-02-11T14:54:59;6.00;99.90
23081;DHT22;11708;50.570;8.532;2023-02-11T14:57:27;6.00;99.90
23081;DHT22;11708;50.570;8.532;2023-02-11T14:59:56;6.00;99.90
23081;DHT22;11708;50.570;8.532;2023-02-11T15:02:34;6.00;99.90
23081;DHT22;11708;50.570;8.532;2023-02-11T15:05:23;6.00;99.90
23081;DHT22;11708;50.570;8.532;2023-02-11T15:08:16;5.90;99.90
23081;DHT22;11708;50.570;8.532;2023-02-11T15:10:43;6.00;99.90
23081;DHT22;11708;50.570;8.532;2023-02-11T15:13:17;6.00;99.90
23081;DHT22;11708;50.570;8.532;2023-02-11T15:15:44;6.00;99.90
23081;DHT22;11708;50.570;8.532;2023-02-11T15:18:18;6.00;99.90
23081;DHT22;11708;50.570;8.532;2023-02-11T15:20:47;6.00;99.90
23081;DHT22;11708;50.570;8.532;2023-02-11T15:23:21;6.00;99.90
23081;DHT22;11708;50.570;8.532;2023-02-11T15:25:47;6.00;99.90
23081;DHT22;11708;50.570;8.532;2023-02-11T15:28:28;6.00;99.90
23081;DHT22;11708;50.570;8.532;2023-02-11T15:31:00;6.00;99.90
23081;DHT22;11708;50.570;8.532;2023-02-11T15:33:27;6.00;99.90
23081;DHT22;11708;50.570;8.532;2023-02-11T15:35:55;6.00;99.90
23081;DHT22;11708;50.570;8.532;2023-02-11T15:38:21;6.00;99.90
23081;DHT22;11708;50.570;8.532;2023-02-11T15:40:56;6.00;99.90
23081;DHT22;11708;50.570;8.532;2023-02-11T15:43:23;6.00;99.90
23081;DHT22;11708;50.570;8.532;2023-02-11T15:46:00;6.20;99.90
23081;DHT22;11708;50.570;8.532;2023-02-11T15:48:41;6.00;99.90
23081;DHT22;11708;50.570;8.532;2023-02-11T15:51:23;6.00;99.90
23081;DHT22;11708;50.570;8.532;2023-02-11T15:54:01;6.00;99.90
23081;DHT22;11708;50.570;8.532;2023-02-11T15:56:37;6.00;99.90
23081;DHT22;11708;50.570;8.532;2023-02-11T16:01:48;6.00;99.90
23081;DHT22;11708;50.570;8.532;2023-02-11T16:04:19;6.00;99.90
23081;DHT22;11708;50.570;8.532;2023-02-11T16:06:46;6.00;99.90
23081;DHT22;11708;50.570;8.532;2023-02-11T16:14:29;6.10;99.90
23081;DHT22;11708;50.570;8.532;2023-02-11T16:17:11;6.00;99.90
23081;DHT22;11708;50.570;8.532;2023-02-11T16:19:43;6.00;99.90
23081;DHT22;11708;50.570;8.532;2023-02-11T16:22:12;6.00;99.90
23081;DHT22;11708;50.570;8.532;2023-02-11T16:24:40;6.00;99.90
23081;DHT22;11708;50.570;8.532;2023-02-11T16:27:32;6.00;99.90
23081;DHT22;11708;50.570;8.532;2023-02-11T16:29:55;6.00;99.90
23081;DHT22;11708;50.570;8.532;2023-02-11T16:32:26;6.00;99.90
23081;DHT22;11708;50.570;8.532;2023-02-11T16:34:53;6.00;99.90
23081;DHT22;11708;50.570;8.532;2023-02-11T16:37:20;6.00;99.90
23081;DHT22;11708;50.570;8.532;2023-02-11T16:39:45;6.00;99.90
23081;DHT22;11708;50.570;8.532;2023-02-11T16:42:11;6.00;99.90
23081;DHT22;11708;50.570;8.532;2023-02-11T16:44:37;6.00;99.90
23081;DHT22;11708;50.570;8.532;2023-02-11T16:47:04;6.00;99.90
23081;DHT22;11708;50.570;8.532;2023-02-11T16:49:39;6.00;99.90
23081;DHT22;11708;50.570;8.532;2023-02-11T16:52:08;5.90;99.90
23081;DHT22;11708;50.570;8.532;2023-02-11T16:54:36;6.00;99.90
23081;DHT22;11708;50.570;8.532;2023-02-11T16:57:14;6.00;99.90
23081;DHT22;11708;50.570;8.532;2023-02-11T16:59:41;5.90;99.90
23081;DHT22;11708;50.570;8.532;2023-02-11T17:02:25;6.00;99.90
23081;DHT22;11708;50.570;8.532;2023-02-11T17:04:53;6.00;99.90
23081;DHT22;11708;50.570;8.532;2023-02-11T17:07:19;5.90;99.90
23081;DHT22;11708;50.570;8.532;2023-02-11T17:09:44;6.00;99.90
23081;DHT22;11708;50.570;8.532;2023-02-11T17:12:10;6.00;99.90
23081;DHT22;11708;50.570;8.532;2023-02-11T17:14:35;6.00;99.90
23081;DHT22;11708;50.570;8.532;2023-02-11T17:17:01;5.90;99.90
23081;DHT22;11708;50.570;8.532;2023-02-11T17:19:26;6.00;99.90
23081;DHT22;11708;50.570;8.532;2023-02-11T17:21:52;6.00;99.90
23081;DHT22;11708;50.570;8.532;2023-02-11T17:24:19;6.00;99.90
23081;DHT22;11708;50.570;8.532;2023-02-11T17:26:46;6.00;99.90
23081;DHT22;11708;50.570;8.532;2023-02-11T17:29:19;6.00;99.90
23081;DHT22;11708;50.570;8.532;2023-02-11T17:31:44;5.90;99.90
23081;DHT22;11708;50.570;8.532;2023-02-11T17:34:10;6.00;99.90
23081;DHT22;11708;50.570;8.532;2023-02-11T17:36:35;6.00;99.90
23081;DHT22;11708;50.570;8.532;2023-02-11T17:39:03;5.90;99.90
23081;DHT22;11708;50.570;8.532;2023-02-11T17:41:29;6.00;99.90
23081;DHT22;11708;50.570;8.532;2023-02-11T17:43:59;6.00;99.90
23081;DHT22;11708;50.570;8.532;2023-02-11T17:46:25;5.90;99.90
23081;DHT22;11708;50.570;8.532;2023-02-11T17:48:53;6.00;99.90
23081;DHT22;11708;50.570;8.532;2023-02-11T17:53:52;5.90;99.90
23081;DHT22;11708;50.570;8.532;2023-02-11T17:56:19;6.00;99.90
23081;DHT22;11708;50.570;8.532;2023-02-11T17:58:44;5.90;99.90
23081;DHT22;11708;50.570;8.532;2023-02-11T18:01:10;6.10;99.90
23081;DHT22;11708;50.570;8.532;2023-02-11T18:03:36;5.90;99.90
23081;DHT22;11708;50.570;8.532;2023-02-11T18:06:03;5.90;99.90
23081;DHT22;11708;50.570;8.532;2023-02-11T18:08:29;5.90;99.90
23081;DHT22;11708;50.570;8.532;2023-02-11T18:10:55;5.90;99.90
23081;DHT22;11708;50.570;8.532;2023-02-11T18:13:21;5.90;99.90
23081;DHT22;11708;50.570;8.532;2023-02-11T18:15:46;5.90;99.90
23081;DHT22;11708;50.570;8.532;2023-02-11T18:18:12;6.00;99.90
23081;DHT22;11708;50.570;8.532;2023-02-11T18:20:38;6.00;99.90
23081;DHT22;11708;50.570;8.532;2023-02-11T18:23:07;6.00;99.90
23081;DHT22;11708;50.570;8.532;2023-02-11T18:25:34;6.00;99.90
23081;DHT22;11708;50.570;8.532;2023-02-11T18:28:00;5.90;99.90